Terminal Aerodrome Forecast
Issued by NWS

Current Version | Previous Version | Graphics & Text | Print | Product List | Glossary On
Versions: 1 2 3 4 5 6 7 8 9 10 11 12 13 14 15 16
000
FTUS41 KRNK 131130
TAFLWB
TAF
KLWB 131130Z 1312/1412 VRB03KT P6SM BKN120
     FM131600 22009KT P6SM SCT040
     FM131800 21012G22KT P6SM SCT050
     FM140000 22005KT P6SM BKN250
     FM140900 17004KT P6SM OVC080=

USA.gov is the U.S. government's official web portal to all federal, state and local government web resources and services.